createdAt,value
2023-01-20T10:02:00.734Z,14.10
2023-01-20T10:04:32.560Z,12.85
2023-01-20T10:07:07.224Z,12.40
2023-01-20T10:09:40.128Z,14.40
2023-01-20T10:12:10.773Z,11.88
2023-01-20T10:14:41.276Z,10.27
2023-01-20T10:17:09.555Z,21.33
2023-01-20T10:24:59.428Z,12.13
2023-01-20T10:27:27.359Z,9.02
2023-01-20T10:29:57.477Z,8.35
2023-01-20T10:32:30.125Z,11.25
2023-01-20T10:34:58.273Z,10.55
2023-01-20T10:37:24.573Z,7.82
2023-01-20T10:40:10.783Z,9.38
2023-01-20T10:42:37.012Z,11.77
2023-01-20T10:45:03.575Z,9.85
2023-01-20T10:47:38.075Z,7.27
2023-01-20T10:50:13.611Z,6.38
2023-01-20T10:55:25.387Z,7.55
2023-01-20T10:57:54.910Z,10.70
2023-01-20T11:00:24.643Z,5.93
2023-01-20T11:02:53.271Z,7.82
2023-01-20T11:05:21.518Z,7.60
2023-01-20T11:07:48.879Z,9.45
2023-01-20T11:10:16.628Z,8.13
2023-01-20T11:12:44.073Z,8.35
2023-01-20T11:15:16.724Z,6.70
2023-01-20T11:17:43.137Z,8.55
2023-01-20T11:20:14.684Z,8.73
2023-01-20T11:22:45.248Z,8.20
2023-01-20T11:25:22.749Z,8.02
2023-01-20T11:27:49.374Z,8.02
2023-01-20T11:33:19.099Z,6.90
2023-01-20T11:36:05.309Z,8.85
2023-01-20T11:38:50.539Z,7.25
2023-01-20T11:41:20.235Z,10.80
2023-01-20T11:43:47.200Z,9.57
2023-01-20T11:46:22.847Z,9.30
2023-01-20T11:48:49.754Z,7.22
2023-01-20T11:54:06.980Z,9.82
2023-01-20T11:56:37.239Z,11.27
2023-01-20T11:59:04.135Z,10.50
2023-01-20T12:01:49.209Z,8.45
2023-01-20T12:09:37.007Z,13.13
2023-01-20T12:12:06.300Z,7.25
2023-01-20T12:14:52.493Z,12.90
2023-01-20T12:17:22.077Z,8.60
2023-01-20T12:22:43.825Z,12.52
2023-01-20T12:25:17.520Z,9.37
2023-01-20T12:27:47.095Z,9.10
2023-01-20T12:30:23.676Z,8.43
2023-01-20T12:32:50.105Z,7.95
2023-01-20T12:35:16.530Z,8.40
2023-01-20T12:40:22.119Z,8.70
2023-01-20T12:43:01.584Z,5.80
2023-01-20T12:51:04.776Z,8.80
2023-01-20T12:53:48.576Z,7.57
2023-01-20T12:56:34.815Z,8.70
2023-01-20T12:59:05.406Z,8.65
2023-01-20T13:01:51.573Z,7.80
2023-01-20T13:04:38.599Z,7.50
2023-01-20T13:15:13.361Z,8.82
2023-01-20T13:17:44.542Z,10.73
2023-01-20T13:20:16.541Z,10.55
2023-01-20T13:22:43.048Z,9.13
2023-01-20T13:25:13.782Z,9.98
2023-01-20T13:27:40.559Z,15.80
2023-01-20T13:30:08.034Z,9.03
2023-01-20T13:32:35.839Z,9.52
2023-01-20T13:35:23.344Z,13.20
2023-01-20T13:48:43.931Z,15.23
2023-01-20T13:51:30.130Z,10.95
2023-01-20T13:54:16.344Z,31.77
2023-01-20T13:56:42.572Z,20.73
2023-01-20T13:59:08.965Z,22.05
2023-01-20T14:01:36.432Z,21.92
2023-01-20T14:04:05.114Z,22.33
2023-01-20T14:06:34.828Z,18.42
2023-01-20T14:09:01.875Z,22.08
2023-01-20T14:11:29.501Z,21.38
2023-01-20T14:13:57.217Z,27.60
2023-01-20T14:16:37.255Z,21.05
2023-01-20T14:19:30.154Z,17.70
2023-01-20T14:21:57.983Z,19.63
2023-01-20T14:27:20.305Z,22.40
2023-01-20T14:29:47.218Z,18.27
2023-01-20T14:32:32.988Z,15.68
2023-01-20T14:34:59.543Z,15.93
2023-01-20T14:37:28.583Z,19.75
2023-01-20T14:39:57.688Z,15.05
2023-01-20T14:42:25.093Z,15.95
2023-01-20T14:44:52.219Z,12.23
2023-01-20T14:47:19.306Z,13.90
2023-01-20T14:49:46.966Z,16.20
2023-01-20T14:52:20.665Z,14.13
2023-01-20T14:54:48.777Z,20.15
